This is the latest recevied weather packets stored in our database for station/object AG1T-20. If no packets are shown the sender has not sent any weather packets the latest 10 day(s).
| Time | Temp. | Humidity | Pressure | Rain* | Wind** | Luminosity | Snow |
|---|---|---|---|---|---|---|---|
| 1778034605 | 12.22° C | 62% | 1011.1 hPa | 0 mm | - | 2 W/m² | - |
| 1778034005 | 12.78° C | 62% | 1011.1 hPa | 0 mm | - | 5 W/m² | - |
| 1778033405 | 13.33° C | 58% | 1011.1 hPa | 0 mm | - | 8 W/m² | - |
| 1778032805 | 15° C | 53% | 1011.1 hPa | 0 mm | - | 13 W/m² | - |
| 1778032205 | 17.78° C | 43% | 1011.1 hPa | 0 mm | - | 17 W/m² | - |
| 1778031605 | 18.89° C | 39% | 1011.1 hPa | 0 mm | - | 28 W/m² | - |
| 1778031005 | 18.89° C | 40% | 1011.1 hPa | 0 mm | - | 32 W/m² | - |
| 1778030405 | 19.44° C | 40% | 1011.1 hPa | 0 mm | - | 36 W/m² | - |
| 1778029804 | 19.44° C | 39% | 1011.1 hPa | 0 mm | - | 42 W/m² | - |
| 1778029205 | 17.78° C | 41% | 1011.1 hPa | 0 mm | - | 27 W/m² | - |
| 1778028605 | 18.33° C | 42% | 1011.1 hPa | 0 mm | - | 44 W/m² | - |
| 1778028005 | 18.33° C | 40% | 1011.1 hPa | 0 mm | - | 65 W/m² | - |
| 1778027405 | 16.11° C | 46% | 1011.1 hPa | 0 mm | - | 37 W/m² | - |
| 1778026805 | 16.67° C | 45% | 1011.1 hPa | 0 mm | - | 55 W/m² | - |
| 1778026205 | 16.67° C | 45% | 1011.1 hPa | 0 mm | - | 38 W/m² | - |
| 1778025605 | 17.78° C | 43% | 1011.1 hPa | 0 mm | - | 131 W/m² | - |
| 1778025005 | 16.67° C | 47% | 1011.3 hPa | 0 mm | - | 153 W/m² | - |
| 1778024405 | 18.33° C | 41% | 1011.3 hPa | 0 mm | - | 174 W/m² | - |
| 1778023805 | 17.78° C | 41% | 1011.3 hPa | 0 mm | - | 206 W/m² | - |
| 1778023205 | 16.67° C | 44% | 1011.3 hPa | 0 mm | - | 238 W/m² | - |
| 1778022605 | 17.22° C | 44% | 1011.3 hPa | 0 mm | - | 274 W/m² | - |
| 1778022005 | 16.67° C | 45% | 1011.3 hPa | 0 mm | - | 292 W/m² | - |
| 1778021405 | 16.67° C | 47% | 1012.3 hPa | 0 mm | - | 325 W/m² | - |
| 1778020805 | 16.67° C | 50% | 1012.3 hPa | 0 mm | - | 358 W/m² | - |
| 1778020205 | 15.56° C | 53% | 1012.3 hPa | 0 mm | - | 354 W/m² | - |
* Rain latest hour (hover to see other rain measurements)
** Current wind speed in m/s (hover to see current wind gust speed)